Time,TemperatureF,DewpointF,PressureIn,WindDirection,WindDirectionDegrees,WindSpeedMPH,WindSpeedGustMPH,Humidity,HourlyPrecipIn,Conditions,Clouds,dailyrainin,SoftwareType,DateUTC
2013-03-10 00:00:00,50.4,26.4,28.05,SSW,202,1.3,2.0,39,0.00,,---,0.00,VWS V14.01,2013-03-10 05:00:00,
2013-03-10 00:02:00,50.4,26.4,28.05,SW,225,1.3,2.5,39,0.00,,---,0.00,VWS V14.01,2013-03-10 05:02:00,
2013-03-10 00:07:00,50.4,26.4,28.05,SE,135,0.9,2.0,39,0.00,,---,0.00,VWS V14.01,2013-03-10 05:07:00,
2013-03-10 00:12:00,50.4,26.4,28.05,SSW,202,0.0,0.0,39,0.00,,---,0.00,VWS V14.01,2013-03-10 05:12:00,
2013-03-10 00:17:00,50.5,26.5,28.05,SSE,158,1.3,2.7,39,0.00,,---,0.00,VWS V14.01,2013-03-10 05:17:00,
2013-03-10 00:22:00,50.5,26.5,28.05,ESE,112,4.0,4.0,39,0.00,,---,0.00,VWS V14.01,2013-03-10 05:22:00,
2013-03-10 00:27:00,50.5,27.1,28.05,SSW,202,3.6,3.6,40,0.00,,---,0.00,VWS V14.01,2013-03-10 05:27:00,
2013-03-10 00:32:00,50.5,26.5,28.05,East,90,0.9,1.3,39,0.00,,---,0.00,VWS V14.01,2013-03-10 05:32:00,
2013-03-10 00:37:00,50.4,27.0,28.05,East,90,0.0,0.0,40,0.00,,---,0.00,VWS V14.01,2013-03-10 05:37:00,
2013-03-10 00:42:00,50.2,26.8,28.05,NE,45,0.9,0.9,40,0.00,,---,0.00,VWS V14.01,2013-03-10 05:42:00,
2013-03-10 00:47:00,50.2,26.8,28.05,SSE,158,0.0,0.0,40,0.00,,---,0.00,VWS V14.01,2013-03-10 05:47:00,
2013-03-10 00:52:00,50.2,26.8,28.05,ESE,112,0.9,0.9,40,0.00,,---,0.00,VWS V14.01,2013-03-10 05:52:00,
2013-03-10 00:57:00,50.4,27.0,28.05,SSE,158,2.9,4.0,40,0.00,,---,0.00,VWS V14.01,2013-03-10 05:57:00,
2013-03-10 00:59:00,50.0,26.6,28.02,SE,135,0.0,3.8,40,0.00,,---,0.00,VWS V14.01,2013-03-10 05:59:00,
2013-03-10 01:03:00,50.4,27.0,28.05,SE,135,4.0,4.7,40,0.00,,---,0.00,VWS V14.01,2013-03-10 06:03:00,
2013-03-10 01:08:00,50.4,27.0,28.05,ESE,112,0.0,1.3,40,0.00,,---,0.00,VWS V14.01,2013-03-10 06:08:00,
2013-03-10 01:13:00,50.4,27.0,28.02,East,90,0.0,2.9,40,0.00,,---,0.00,VWS V14.01,2013-03-10 06:13:00,
2013-03-10 01:18:00,50.4,27.0,28.02,SSW,202,0.9,0.9,40,0.00,,---,0.00,VWS V14.01,2013-03-10 06:18:00,
2013-03-10 01:23:00,50.4,27.0,28.05,East,90,0.0,2.9,40,0.00,,---,0.00,VWS V14.01,2013-03-10 06:23:00,
2013-03-10 01:28:00,50.4,27.0,28.05,NW,315,0.0,0.0,40,0.00,,---,0.00,VWS V14.01,2013-03-10 06:28:00,
2013-03-10 01:33:00,50.5,27.1,28.05,NNW,338,2.2,2.7,40,0.00,,---,0.00,VWS V14.01,2013-03-10 06:33:00,
2013-03-10 01:38:00,50.2,26.8,28.05,SSW,202,1.1,3.1,40,0.00,,---,0.00,VWS V14.01,2013-03-10 06:38:00,
2013-03-10 01:43:00,50.2,26.8,28.05,ESE,112,2.5,2.7,40,0.00,,---,0.00,VWS V14.01,2013-03-10 06:43:00,
2013-03-10 01:48:00,50.0,26.6,28.05,SSE,158,0.0,2.9,40,0.00,,---,0.00,VWS V14.01,2013-03-10 06:48:00,
2013-03-10 01:54:00,50.2,26.8,28.02,East,90,1.6,1.6,40,0.00,,---,0.00,VWS V14.01,2013-03-10 06:54:00,
2013-03-10 01:59:00,50.0,26.6,28.02,SSE,158,1.1,1.1,40,0.00,,---,0.00,VWS V14.01,2013-03-10 06:59:00,
2013-03-10 03:04:00,50.0,26.6,28.02,SE,135,0.0,0.0,40,0.00,,---,0.00,VWS V14.01,2013-03-10 07:04:00,
2013-03-10 03:09:00,49.8,26.5,28.02,SW,225,0.9,0.9,40,0.00,,---,0.00,VWS V14.01,2013-03-10 07:09:00,
2013-03-10 03:14:00,49.8,26.5,28.02,ENE,68,2.5,2.5,40,0.00,,---,0.00,VWS V14.01,2013-03-10 07:14:00,
2013-03-10 03:19:00,49.8,27.1,28.02,WSW,248,0.0,0.0,41,0.00,,---,0.00,VWS V14.01,2013-03-10 07:19:00,
2013-03-10 03:24:00,49.8,26.5,28.02,SSE,158,0.0,0.0,40,0.00,,---,0.00,VWS V14.01,2013-03-10 07:24:00,
2013-03-10 03:29:00,50.0,26.6,28.02,East,90,0.0,2.2,40,0.00,,---,0.00,VWS V14.01,2013-03-10 07:29:00,
2013-03-10 03:34:00,50.0,26.6,28.02,South,180,0.0,0.0,40,0.00,,---,0.00,VWS V14.01,2013-03-10 07:34:00,
2013-03-10 03:39:00,50.2,26.8,28.02,SSE,158,2.0,2.5,40,0.00,,---,0.00,VWS V14.01,2013-03-10 07:39:00,
2013-03-10 03:44:00,50.2,26.8,28.02,South,180,1.6,2.0,40,0.00,,---,0.00,VWS V14.01,2013-03-10 07:44:00,
2013-03-10 03:49:00,50.4,27.0,28.02,East,90,2.5,2.5,40,0.00,,---,0.00,VWS V14.01,2013-03-10 07:49:00,
2013-03-10 03:55:00,50.2,26.8,28.02,NE,45,1.3,1.3,40,0.00,,---,0.00,VWS V14.01,2013-03-10 07:55:00,
2013-03-10 04:00:00,50.2,26.8,28.02,SSW,202,1.1,1.1,40,0.00,,---,0.00,VWS V14.01,2013-03-10 08:00:00,
2013-03-10 04:05:00,50.2,26.8,28.02,SE,135,1.1,1.1,40,0.00,,---,0.00,VWS V14.01,2013-03-10 08:05:00,
2013-03-10 04:10:00,50.2,26.8,28.02,ESE,112,1.1,3.8,40,0.00,,---,0.00,VWS V14.01,2013-03-10 08:10:00,
2013-03-10 04:15:00,50.2,26.8,28.02,SSE,158,1.3,2.2,40,0.00,,---,0.00,VWS V14.01,2013-03-10 08:15:00,
2013-03-10 04:20:00,50.2,26.8,28.02,South,180,0.0,0.0,40,0.00,,---,0.00,VWS V14.01,2013-03-10 08:20:00,
2013-03-10 04:25:00,50.2,26.8,28.02,East,90,0.0,2.0,40,0.00,,---,0.00,VWS V14.01,2013-03-10 08:25:00,
2013-03-10 04:30:00,50.0,26.6,28.02,North,0,3.6,3.6,40,0.00,,---,0.00,VWS V14.01,2013-03-10 08:30:00,
2013-03-10 04:35:00,50.0,26.6,28.02,East,90,2.9,2.9,40,0.00,,---,0.00,VWS V14.01,2013-03-10 08:35:00,
2013-03-10 04:41:00,50.0,26.6,27.99,SE,135,2.2,3.8,40,0.00,,---,0.00,VWS V14.01,2013-03-10 08:41:00,
2013-03-10 04:45:00,49.8,27.1,27.99,South,180,2.7,2.7,41,0.00,,---,0.00,VWS V14.01,2013-03-10 08:45:00,
2013-03-10 04:51:00,50.0,26.6,27.99,East,90,2.7,3.8,40,0.00,,---,0.00,VWS V14.01,2013-03-10 08:51:00,
2013-03-10 04:56:00,50.2,26.8,27.99,East,90,2.9,2.9,40,0.00,,---,0.00,VWS V14.01,2013-03-10 08:56:00,
2013-03-10 05:01:00,50.2,26.8,27.99,ESE,112,0.0,0.0,40,0.00,,---,0.00,VWS V14.01,2013-03-10 09:01:00,
2013-03-10 05:06:00,50.2,26.8,27.99,NE,45,2.0,2.0,40,0.00,,---,0.00,VWS V14.01,2013-03-10 09:06:00,
2013-03-10 05:11:00,50.2,26.8,27.99,SSE,158,0.0,1.3,40,0.00,,---,0.00,VWS V14.01,2013-03-10 09:11:00,
2013-03-10 05:16:00,50.0,26.6,27.99,SE,135,1.1,1.1,40,0.00,,---,0.00,VWS V14.01,2013-03-10 09:16:00,
2013-03-10 05:21:00,50.0,26.6,27.99,SSW,202,1.6,2.5,40,0.00,,---,0.00,VWS V14.01,2013-03-10 09:21:00,
2013-03-10 05:26:00,49.8,27.1,27.99,North,0,2.0,2.5,41,0.00,,---,0.00,VWS V14.01,2013-03-10 09:26:00,
2013-03-10 05:31:00,50.0,26.6,27.99,SSE,158,3.8,3.8,40,0.00,,---,0.00,VWS V14.01,2013-03-10 09:31:00,
2013-03-10 05:36:00,49.8,27.1,27.99,East,90,0.0,0.9,41,0.00,,---,0.00,VWS V14.01,2013-03-10 09:36:00,
2013-03-10 05:41:00,50.0,26.6,27.99,South,180,0.9,4.7,40,0.00,,---,0.00,VWS V14.01,2013-03-10 09:41:00,
2013-03-10 05:46:00,50.2,26.8,27.99,ESE,112,0.9,3.4,40,0.00,,---,0.00,VWS V14.01,2013-03-10 09:46:00,
2013-03-10 05:51:00,50.2,26.8,28.02,SSE,158,0.0,0.0,40,0.00,,---,0.00,VWS V14.01,2013-03-10 09:51:00,
2013-03-10 05:56:00,50.2,26.8,28.02,SSE,158,1.3,3.4,40,0.00,,---,0.00,VWS V14.01,2013-03-10 09:56:00,
2013-03-10 06:01:00,50.4,27.0,28.02,SSE,158,0.0,0.0,40,0.00,,---,0.00,VWS V14.01,2013-03-10 10:01:00,
2013-03-10 06:06:00,50.4,27.0,28.02,SE,135,1.6,1.6,40,0.00,,---,0.00,VWS V14.01,2013-03-10 10:06:00,
2013-03-10 06:11:00,50.5,27.1,28.02,WSW,248,2.5,2.7,40,0.00,,---,0.00,VWS V14.01,2013-03-10 10:11:00,
2013-03-10 06:16:00,50.5,27.1,28.02,South,180,1.3,1.3,40,0.00,,---,0.00,VWS V14.01,2013-03-10 10:16:00,
2013-03-10 06:21:00,50.5,27.1,28.02,SSE,158,1.3,3.6,40,0.00,,---,0.00,VWS V14.01,2013-03-10 10:21:00,
2013-03-10 06:26:00,50.5,27.1,28.02,ESE,112,1.1,1.1,40,0.00,,---,0.00,VWS V14.01,2013-03-10 10:26:00,
2013-03-10 06:31:00,50.5,27.1,28.02,ENE,68,2.2,6.5,40,0.00,,---,0.00,VWS V14.01,2013-03-10 10:31:00,
2013-03-10 06:37:00,50.5,27.1,28.02,SSE,158,2.0,6.0,40,0.00,,---,0.00,VWS V14.01,2013-03-10 10:37:00,
2013-03-10 06:42:00,50.5,27.1,28.02,SSW,202,0.9,2.0,40,0.00,,---,0.00,VWS V14.01,2013-03-10 10:42:00,
2013-03-10 06:47:00,50.5,27.1,28.02,South,180,3.4,3.4,40,0.00,,---,0.00,VWS V14.01,2013-03-10 10:47:00,
2013-03-10 06:52:00,50.5,27.1,28.02,WSW,248,1.6,3.8,40,0.00,,---,0.00,VWS V14.01,2013-03-10 10:52:00,
2013-03-10 06:57:00,50.4,27.0,28.02,SW,225,2.5,2.5,40,0.00,,---,0.00,VWS V14.01,2013-03-10 10:57:00,
2013-03-10 07:02:00,50.4,27.0,28.02,ESE,112,2.2,5.6,40,0.00,,---,0.00,VWS V14.01,2013-03-10 11:02:00,
2013-03-10 07:07:00,50.4,27.0,28.02,South,180,2.9,2.9,40,0.00,,---,0.00,VWS V14.01,2013-03-10 11:07:00,
2013-03-10 07:12:00,50.4,27.0,28.02,South,180,3.4,4.0,40,0.00,,---,0.00,VWS V14.01,2013-03-10 11:12:00,
2013-03-10 07:17:00,50.4,26.4,28.02,ESE,112,0.0,3.8,39,0.00,,---,0.00,VWS V14.01,2013-03-10 11:17:00,
2013-03-10 07:22:00,50.2,26.8,28.02,East,90,2.7,2.7,40,0.00,,---,0.00,VWS V14.01,2013-03-10 11:22:00,
2013-03-10 07:27:00,50.0,26.6,28.02,SSW,202,1.1,1.1,40,0.00,,---,0.00,VWS V14.01,2013-03-10 11:27:00,
2013-03-10 07:32:00,50.0,26.6,28.02,East,90,0.0,0.0,40,0.00,,---,0.00,VWS V14.01,2013-03-10 11:32:00,
2013-03-10 07:37:00,49.8,26.5,28.02,SE,135,0.0,4.0,40,0.00,,---,0.00,VWS V14.01,2013-03-10 11:37:00,
2013-03-10 07:42:00,49.6,26.3,28.02,West,270,1.6,1.6,40,0.00,,---,0.00,VWS V14.01,2013-03-10 11:42:00,
2013-03-10 07:47:00,49.6,26.3,28.02,SSE,158,0.0,0.0,40,0.00,,---,0.00,VWS V14.01,2013-03-10 11:47:00,
2013-03-10 07:52:00,49.6,26.3,28.02,WSW,248,2.2,2.7,40,0.00,,---,0.00,VWS V14.01,2013-03-10 11:52:00,
2013-03-10 07:57:00,49.6,26.3,28.02,East,90,1.3,1.3,40,0.00,,---,0.00,VWS V14.01,2013-03-10 11:57:00,
2013-03-10 08:02:00,49.6,26.3,28.02,ENE,68,0.9,1.3,40,0.00,,---,0.00,VWS V14.01,2013-03-10 12:02:00,
2013-03-10 08:07:00,49.5,26.2,28.02,WNW,292,0.0,0.0,40,0.00,,---,0.00,VWS V14.01,2013-03-10 12:07:00,
2013-03-10 08:12:00,49.5,26.2,28.02,WNW,292,1.6,1.6,40,0.00,,---,0.00,VWS V14.01,2013-03-10 12:12:00,
2013-03-10 08:18:00,49.5,26.2,28.02,NNE,22,0.0,1.1,40,0.00,,---,0.00,VWS V14.01,2013-03-10 12:18:00,
2013-03-10 08:23:00,49.5,26.2,28.02,SSW,202,0.0,2.7,40,0.00,,---,0.00,VWS V14.01,2013-03-10 12:23:00,
2013-03-10 08:28:00,49.5,26.2,28.02,SE,135,2.5,2.7,40,0.00,,---,0.00,VWS V14.01,2013-03-10 12:28:00,
2013-03-10 08:33:00,49.5,26.2,28.02,ESE,112,1.6,2.2,40,0.00,,---,0.00,VWS V14.01,2013-03-10 12:33:00,
2013-03-10 08:38:00,49.3,26.0,28.02,SSW,202,1.1,3.4,40,0.00,,---,0.00,VWS V14.01,2013-03-10 12:38:00,
2013-03-10 08:43:00,49.5,26.2,28.02,ENE,68,0.0,2.5,40,0.00,,---,0.00,VWS V14.01,2013-03-10 12:43:00,
2013-03-10 08:48:00,49.6,26.3,28.02,East,90,2.7,2.7,40,0.00,,---,0.00,VWS V14.01,2013-03-10 12:48:00,
2013-03-10 08:53:00,50.0,26.6,28.02,SSW,202,2.2,2.2,40,0.00,,---,0.00,VWS V14.01,2013-03-10 12:53:00,
2013-03-10 08:58:00,49.8,26.5,28.02,ENE,68,3.1,3.1,40,0.00,,---,0.00,VWS V14.01,2013-03-10 12:58:00,
2013-03-10 09:03:00,50.2,26.8,28.02,SSE,158,2.9,2.9,40,0.00,,---,0.00,VWS V14.01,2013-03-10 13:03:00,
2013-03-10 09:08:00,50.0,26.6,28.02,ENE,68,2.7,2.7,40,0.00,,---,0.00,VWS V14.01,2013-03-10 13:08:00,
2013-03-10 09:13:00,50.0,26.6,28.02,ENE,68,3.1,3.1,40,0.00,,---,0.00,VWS V14.01,2013-03-10 13:13:00,
2013-03-10 09:19:00,49.8,26.5,28.02,ENE,68,2.9,3.6,40,0.00,,---,0.00,VWS V14.01,2013-03-10 13:19:00,
2013-03-10 09:24:00,50.2,26.8,28.02,East,90,2.5,2.5,40,0.00,,---,0.00,VWS V14.01,2013-03-10 13:24:00,
2013-03-10 09:29:00,50.7,27.3,28.02,SSW,202,4.0,4.0,40,0.00,,---,0.00,VWS V14.01,2013-03-10 13:29:00,
2013-03-10 09:34:00,51.4,27.9,28.02,SSE,158,4.3,6.3,40,0.00,,---,0.00,VWS V14.01,2013-03-10 13:34:00,
2013-03-10 09:39:00,52.0,27.8,28.02,ESE,112,5.4,5.4,39,0.00,,---,0.00,VWS V14.01,2013-03-10 13:39:00,
2013-03-10 09:44:00,52.5,28.3,28.02,WSW,248,1.3,3.8,39,0.00,,---,0.00,VWS V14.01,2013-03-10 13:44:00,
2013-03-10 09:49:00,52.9,28.6,28.02,SSE,158,3.8,3.8,39,0.00,,---,0.00,VWS V14.01,2013-03-10 13:49:00,
2013-03-10 09:54:00,53.1,28.8,28.02,East,90,3.1,3.1,39,0.00,,---,0.00,VWS V14.01,2013-03-10 13:54:00,
2013-03-10 09:59:00,53.2,28.9,28.02,SSE,158,2.0,3.4,39,0.00,,---,0.00,VWS V14.01,2013-03-10 13:59:00,
2013-03-10 10:04:00,53.6,28.6,28.02,ESE,112,3.4,5.6,38,0.00,,---,0.00,VWS V14.01,2013-03-10 14:04:00,
2013-03-10 10:09:00,54.5,29.4,28.02,ESE,112,2.9,4.7,38,0.00,,---,0.00,VWS V14.01,2013-03-10 14:09:00,
2013-03-10 10:14:00,54.7,29.6,28.02,SSE,158,2.0,2.0,38,0.00,,---,0.00,VWS V14.01,2013-03-10 14:14:00,
2013-03-10 10:19:00,54.5,29.4,28.02,SE,135,2.9,4.9,38,0.00,,---,0.00,VWS V14.01,2013-03-10 14:19:00,
2013-03-10 10:24:00,54.1,29.1,28.02,East,90,1.3,1.3,38,0.00,,---,0.00,VWS V14.01,2013-03-10 14:24:00,
2013-03-10 10:29:00,54.0,29.0,28.02,ESE,112,4.3,5.6,38,0.00,,---,0.00,VWS V14.01,2013-03-10 14:29:00,
2013-03-10 10:34:00,54.5,29.4,28.02,East,90,2.7,2.7,38,0.00,,---,0.00,VWS V14.01,2013-03-10 14:34:00,
2013-03-10 10:39:00,55.6,30.4,28.02,ESE,112,2.7,2.7,38,0.00,,---,0.00,VWS V14.01,2013-03-10 14:39:00,
2013-03-10 10:44:00,56.3,31.0,28.02,East,90,2.0,2.0,38,0.00,,---,0.00,VWS V14.01,2013-03-10 14:44:00,
2013-03-10 10:49:00,56.8,30.9,28.02,South,180,2.5,3.8,37,0.00,,---,0.00,VWS V14.01,2013-03-10 14:49:00,
2013-03-10 10:55:00,56.7,30.7,28.02,East,90,1.6,3.4,37,0.00,,---,0.00,VWS V14.01,2013-03-10 14:55:00,
2013-03-10 11:00:00,56.8,30.9,28.02,SSE,158,1.3,3.6,37,0.00,,---,0.00,VWS V14.01,2013-03-10 15:00:00,
2013-03-10 11:05:00,56.7,30.7,28.02,SSW,202,2.9,2.9,37,0.00,,---,0.00,VWS V14.01,2013-03-10 15:05:00,
2013-03-10 11:10:00,57.2,30.5,28.02,SSE,158,4.9,5.6,36,0.00,,---,0.00,VWS V14.01,2013-03-10 15:10:00,
2013-03-10 11:15:00,57.0,31.0,28.02,ENE,68,4.0,6.0,37,0.00,,---,0.00,VWS V14.01,2013-03-10 15:15:00,
2013-03-10 11:20:00,57.4,30.7,28.02,West,270,2.9,5.4,36,0.00,,---,0.00,VWS V14.01,2013-03-10 15:20:00,
2013-03-10 11:25:00,57.2,30.5,28.02,WNW,292,3.8,3.8,36,0.00,,---,0.00,VWS V14.01,2013-03-10 15:25:00,
2013-03-10 11:30:00,58.5,31.6,28.02,SE,135,2.5,2.5,36,0.00,,---,0.00,VWS V14.01,2013-03-10 15:30:00,
2013-03-10 11:35:00,58.5,31.6,28.02,East,90,5.8,5.8,36,0.00,,---,0.00,VWS V14.01,2013-03-10 15:35:00,
2013-03-10 11:40:00,58.5,31.6,28.02,WSW,248,2.2,7.6,36,0.00,,---,0.00,VWS V14.01,2013-03-10 15:40:00,
2013-03-10 11:45:00,59.2,31.6,28.02,ESE,112,2.7,5.8,35,0.00,,---,0.00,VWS V14.01,2013-03-10 15:45:00,
2013-03-10 11:50:00,58.8,32.0,28.02,WSW,248,2.0,3.6,36,0.00,,---,0.00,VWS V14.01,2013-03-10 15:50:00,
2013-03-10 11:55:00,59.2,31.6,28.02,East,90,3.4,3.4,35,0.00,,---,0.00,VWS V14.01,2013-03-10 15:55:00,
2013-03-10 12:00:00,59.7,32.0,28.02,SSE,158,4.3,4.9,35,0.00,,---,0.00,VWS V14.01,2013-03-10 16:00:00,
2013-03-10 12:05:00,60.1,32.4,28.02,East,90,6.0,6.0,35,0.00,,---,0.00,VWS V14.01,2013-03-10 16:05:00,
2013-03-10 12:10:00,61.3,33.5,27.99,ESE,112,1.6,3.1,35,0.00,,---,0.00,VWS V14.01,2013-03-10 16:10:00,
2013-03-10 12:15:00,62.6,33.9,27.99,East,90,4.3,6.3,34,0.00,,---,0.00,VWS V14.01,2013-03-10 16:15:00,
2013-03-10 12:20:00,61.2,32.6,27.99,SSE,158,7.2,7.4,34,0.00,,---,0.00,VWS V14.01,2013-03-10 16:20:00,
2013-03-10 12:26:00,62.6,33.9,27.99,East,90,7.6,7.6,34,0.00,,---,0.00,VWS V14.01,2013-03-10 16:26:00,
2013-03-10 12:31:00,63.5,34.7,27.99,ESE,112,2.9,5.6,34,0.00,,---,0.00,VWS V14.01,2013-03-10 16:31:00,
2013-03-10 12:36:00,63.0,34.2,27.99,East,90,4.9,4.9,34,0.00,,---,0.00,VWS V14.01,2013-03-10 16:36:00,
2013-03-10 12:41:00,63.5,33.9,28.02,South,180,2.9,5.6,33,0.00,,---,0.00,VWS V14.01,2013-03-10 16:41:00,
2013-03-10 12:46:00,63.5,33.9,28.02,East,90,3.6,5.8,33,0.00,,---,0.00,VWS V14.01,2013-03-10 16:46:00,
2013-03-10 12:51:00,63.9,34.2,27.99,SE,135,4.0,4.0,33,0.00,,---,0.00,VWS V14.01,2013-03-10 16:51:00,
2013-03-10 12:56:00,64.8,35.0,27.99,ESE,112,2.9,2.9,33,0.00,,---,0.00,VWS V14.01,2013-03-10 16:56:00,
2013-03-10 13:01:00,64.8,34.2,27.99,East,90,2.7,5.6,32,0.00,,---,0.00,VWS V14.01,2013-03-10 17:01:00,
2013-03-10 13:06:00,65.1,35.3,27.99,SE,135,4.3,4.3,33,0.00,,---,0.00,VWS V14.01,2013-03-10 17:06:00,
2013-03-10 13:11:00,64.9,34.4,27.99,SSE,158,3.4,4.0,32,0.00,,---,0.00,VWS V14.01,2013-03-10 17:11:00,
2013-03-10 13:16:00,64.6,34.8,27.99,East,90,2.7,2.7,33,0.00,,---,0.00,VWS V14.01,2013-03-10 17:16:00,
2013-03-10 13:21:00,64.9,34.4,27.99,SSW,202,7.6,7.6,32,0.00,,---,0.00,VWS V14.01,2013-03-10 17:21:00,
2013-03-10 13:27:00,64.9,33.6,27.99,East,90,4.0,4.0,31,0.00,,---,0.00,VWS V14.01,2013-03-10 17:27:00,
2013-03-10 13:32:00,65.7,35.0,27.99,SSE,158,4.0,4.0,32,0.00,,---,0.00,VWS V14.01,2013-03-10 17:32:00,
2013-03-10 13:37:00,65.3,33.1,27.99,WSW,248,5.4,6.0,30,0.00,,---,0.00,VWS V14.01,2013-03-10 17:37:00,
2013-03-10 13:42:00,64.9,33.6,27.99,East,90,2.7,4.3,31,0.00,,---,0.00,VWS V14.01,2013-03-10 17:42:00,
2013-03-10 13:47:00,64.9,33.6,27.99,ESE,112,2.0,3.4,31,0.00,,---,0.00,VWS V14.01,2013-03-10 17:47:00,
2013-03-10 13:52:00,65.3,33.9,27.99,SSE,158,2.5,2.7,31,0.00,,---,0.00,VWS V14.01,2013-03-10 17:52:00,
2013-03-10 13:57:00,64.8,33.5,27.99,SSE,158,4.3,4.5,31,0.00,,---,0.00,VWS V14.01,2013-03-10 17:57:00,
2013-03-10 14:02:00,63.9,33.5,27.99,ESE,112,3.6,4.0,32,0.00,,---,0.00,VWS V14.01,2013-03-10 18:02:00,
2013-03-10 14:07:00,64.4,33.9,27.99,NNE,22,2.9,2.9,32,0.00,,---,0.00,VWS V14.01,2013-03-10 18:07:00,
2013-03-10 14:12:00,64.4,33.9,27.99,ESE,112,2.9,3.6,32,0.00,,---,0.00,VWS V14.01,2013-03-10 18:12:00,
2013-03-10 14:17:00,64.2,33.0,27.99,ESE,112,2.9,8.5,31,0.00,,---,0.00,VWS V14.01,2013-03-10 18:17:00,
2013-03-10 14:22:00,63.9,33.5,27.99,East,90,0.0,2.2,32,0.00,,---,0.00,VWS V14.01,2013-03-10 18:22:00,
2013-03-10 14:27:00,63.7,32.5,27.99,SSE,158,4.0,4.0,31,0.00,,---,0.00,VWS V14.01,2013-03-10 18:27:00,
2013-03-10 14:32:00,63.5,33.1,27.99,NE,45,2.7,3.8,32,0.00,,---,0.00,VWS V14.01,2013-03-10 18:32:00,
2013-03-10 14:37:00,63.1,32.8,27.96,SE,135,2.9,5.6,32,0.00,,---,0.00,VWS V14.01,2013-03-10 18:37:00,
2013-03-10 14:42:00,62.8,32.5,27.96,East,90,6.5,6.5,32,0.00,,---,0.00,VWS V14.01,2013-03-10 18:42:00,
2013-03-10 14:47:00,63.0,33.4,27.96,East,90,4.3,4.3,33,0.00,,---,0.00,VWS V14.01,2013-03-10 18:47:00,
2013-03-10 14:52:00,63.5,33.9,27.96,ESE,112,7.8,7.8,33,0.00,,---,0.00,VWS V14.01,2013-03-10 18:52:00,
2013-03-10 14:57:00,64.4,34.7,27.96,SSW,202,3.8,3.8,33,0.00,,---,0.00,VWS V14.01,2013-03-10 18:57:00,
2013-03-10 15:02:00,65.1,34.6,27.96,West,270,1.1,2.5,32,0.00,,---,0.00,VWS V14.01,2013-03-10 19:02:00,
2013-03-10 15:08:00,64.6,34.1,27.96,SSW,202,3.6,3.6,32,0.00,,---,0.00,VWS V14.01,2013-03-10 19:08:00,
2013-03-10 15:13:00,64.9,34.4,27.96,SW,225,2.5,3.4,32,0.00,,---,0.00,VWS V14.01,2013-03-10 19:13:00,
2013-03-10 15:18:00,64.9,33.6,27.96,South,180,2.5,3.8,31,0.00,,---,0.00,VWS V14.01,2013-03-10 19:18:00,
2013-03-10 15:23:00,65.1,32.9,27.96,NE,45,2.0,5.8,30,0.00,,---,0.00,VWS V14.01,2013-03-10 19:23:00,
2013-03-10 15:28:00,64.4,32.3,27.96,NNE,22,4.3,6.5,30,0.00,,---,0.00,VWS V14.01,2013-03-10 19:28:00,
2013-03-10 15:33:00,64.6,32.5,27.96,SE,135,1.3,4.9,30,0.00,,---,0.00,VWS V14.01,2013-03-10 19:33:00,
2013-03-10 15:38:00,66.2,33.9,27.96,ENE,68,2.5,2.9,30,0.00,,---,0.00,VWS V14.01,2013-03-10 19:38:00,
2013-03-10 15:43:00,67.3,34.8,27.96,East,90,3.1,3.1,30,0.00,,---,0.00,VWS V14.01,2013-03-10 19:43:00,
2013-03-10 15:48:00,67.5,34.1,27.96,East,90,2.9,3.6,29,0.00,,---,0.00,VWS V14.01,2013-03-10 19:48:00,
2013-03-10 15:53:00,67.6,33.4,27.96,SE,135,0.9,1.6,28,0.00,,---,0.00,VWS V14.01,2013-03-10 19:53:00,
2013-03-10 15:58:00,68.0,32.8,27.96,SSW,202,1.1,5.4,27,0.00,,---,0.00,VWS V14.01,2013-03-10 19:58:00,
2013-03-10 16:03:00,67.6,31.6,27.96,ESE,112,6.3,8.1,26,0.00,,---,0.00,VWS V14.01,2013-03-10 20:03:00,
2013-03-10 16:08:00,66.9,31.0,27.96,SE,135,6.3,6.3,26,0.00,,---,0.00,VWS V14.01,2013-03-10 20:08:00,
2013-03-10 16:13:00,66.4,31.4,27.96,SE,135,2.9,3.4,27,0.00,,---,0.00,VWS V14.01,2013-03-10 20:13:00,
2013-03-10 16:18:00,65.8,31.0,27.96,ESE,112,1.6,4.7,27,0.00,,---,0.00,VWS V14.01,2013-03-10 20:18:00,
2013-03-10 16:23:00,66.0,32.0,27.96,SSW,202,2.2,2.7,28,0.00,,---,0.00,VWS V14.01,2013-03-10 20:23:00,
2013-03-10 16:29:00,66.6,31.6,27.96,SW,225,2.0,3.4,27,0.00,,---,0.00,VWS V14.01,2013-03-10 20:29:00,
2013-03-10 16:34:00,67.5,33.2,27.96,WSW,248,0.0,0.9,28,0.00,,---,0.00,VWS V14.01,2013-03-10 20:34:00,
2013-03-10 16:39:00,67.3,32.2,27.93,ESE,112,2.2,2.2,27,0.00,,---,0.00,VWS V14.01,2013-03-10 20:39:00,
2013-03-10 16:44:00,66.2,31.3,27.93,South,180,1.1,2.7,27,0.00,,---,0.00,VWS V14.01,2013-03-10 20:44:00,
2013-03-10 16:49:00,65.8,31.0,27.93,WSW,248,1.6,3.4,27,0.00,,---,0.00,VWS V14.01,2013-03-10 20:49:00,
2013-03-10 16:54:00,65.3,30.5,27.93,ESE,112,3.6,3.6,27,0.00,,---,0.00,VWS V14.01,2013-03-10 20:54:00,
2013-03-10 16:59:00,64.8,30.0,27.93,ESE,112,1.3,4.9,27,0.00,,---,0.00,VWS V14.01,2013-03-10 20:59:00,
2013-03-10 17:04:00,65.1,30.3,27.93,ESE,112,4.0,4.0,27,0.00,,---,0.00,VWS V14.01,2013-03-10 21:04:00,
2013-03-10 17:09:00,65.7,29.9,27.93,South,180,3.1,3.1,26,0.00,,---,0.00,VWS V14.01,2013-03-10 21:09:00,
2013-03-10 17:14:00,66.0,30.2,27.93,WSW,248,3.6,4.3,26,0.00,,---,0.00,VWS V14.01,2013-03-10 21:14:00,
2013-03-10 17:19:00,65.3,28.6,27.93,SE,135,7.8,9.6,25,0.00,,---,0.00,VWS V14.01,2013-03-10 21:19:00,
2013-03-10 17:24:00,64.8,29.1,27.93,SSE,158,2.2,2.9,26,0.00,,---,0.00,VWS V14.01,2013-03-10 21:24:00,
2013-03-10 17:29:00,64.2,28.6,27.93,ESE,112,3.6,4.3,26,0.00,,---,0.00,VWS V14.01,2013-03-10 21:29:00,
2013-03-10 17:35:00,64.0,28.5,27.93,SSE,158,5.4,5.4,26,0.00,,---,0.00,VWS V14.01,2013-03-10 21:35:00,
2013-03-10 17:40:00,63.7,28.2,27.93,SE,135,3.4,3.4,26,0.00,,---,0.00,VWS V14.01,2013-03-10 21:40:00,
2013-03-10 17:45:00,63.5,28.0,27.93,East,90,2.5,2.5,26,0.00,,---,0.00,VWS V14.01,2013-03-10 21:45:00,
2013-03-10 17:50:00,63.5,28.0,27.93,East,90,1.6,1.6,26,0.00,,---,0.00,VWS V14.01,2013-03-10 21:50:00,
2013-03-10 17:55:00,63.5,28.0,27.93,ENE,68,1.3,2.5,26,0.00,,---,0.00,VWS V14.01,2013-03-10 21:55:00,
2013-03-10 18:00:00,63.3,27.9,27.93,East,90,5.4,5.4,26,0.00,,---,0.00,VWS V14.01,2013-03-10 22:00:00,
2013-03-10 18:05:00,63.0,27.6,27.93,ESE,112,3.4,7.4,26,0.00,,---,0.00,VWS V14.01,2013-03-10 22:05:00,
2013-03-10 18:10:00,63.0,27.6,27.93,ESE,112,2.0,3.1,26,0.00,,---,0.00,VWS V14.01,2013-03-10 22:10:00,
2013-03-10 18:15:00,63.3,28.8,27.93,SSE,158,0.9,3.6,27,0.00,,---,0.00,VWS V14.01,2013-03-10 22:15:00,
2013-03-10 18:20:00,63.9,29.3,27.93,ESE,112,5.6,5.6,27,0.00,,---,0.00,VWS V14.01,2013-03-10 22:20:00,
2013-03-10 18:25:00,63.9,29.3,27.90,ESE,112,0.9,2.2,27,0.00,,---,0.00,VWS V14.01,2013-03-10 22:25:00,
2013-03-10 18:30:00,63.5,29.0,27.90,South,180,2.7,2.7,27,0.00,,---,0.00,VWS V14.01,2013-03-10 22:30:00,
2013-03-10 18:35:00,63.1,28.6,27.90,SSE,158,0.0,2.5,27,0.00,,---,0.00,VWS V14.01,2013-03-10 22:35:00,
2013-03-10 18:40:00,63.0,28.5,27.90,ESE,112,2.0,3.6,27,0.00,,---,0.00,VWS V14.01,2013-03-10 22:40:00,
2013-03-10 18:45:00,63.1,28.6,27.90,SE,135,3.6,3.6,27,0.00,,---,0.00,VWS V14.01,2013-03-10 22:45:00,
2013-03-10 18:50:00,63.3,29.7,27.90,ESE,112,2.0,2.0,28,0.00,,---,0.00,VWS V14.01,2013-03-10 22:50:00,
2013-03-10 18:56:00,63.1,29.5,27.90,SE,135,3.6,7.4,28,0.00,,---,0.00,VWS V14.01,2013-03-10 22:56:00,
2013-03-10 19:01:00,62.8,28.3,27.90,East,90,4.0,4.3,27,0.00,,---,0.00,VWS V14.01,2013-03-10 23:01:00,
2013-03-10 19:06:00,62.2,28.8,27.90,East,90,1.6,4.0,28,0.00,,---,0.00,VWS V14.01,2013-03-10 23:06:00,
2013-03-10 19:11:00,62.1,28.6,27.90,East,90,2.5,8.5,28,0.00,,---,0.00,VWS V14.01,2013-03-10 23:11:00,
2013-03-10 19:16:00,61.5,29.0,27.90,SE,135,0.9,4.9,29,0.00,,---,0.00,VWS V14.01,2013-03-10 23:16:00,
2013-03-10 19:21:00,61.2,28.7,27.90,SW,225,2.7,2.7,29,0.00,,---,0.00,VWS V14.01,2013-03-10 23:21:00,
2013-03-10 19:26:00,61.0,28.5,27.90,WNW,292,3.4,4.0,29,0.00,,---,0.00,VWS V14.01,2013-03-10 23:26:00,
2013-03-10 19:32:00,60.6,29.0,27.90,SSE,158,6.5,6.5,30,0.00,,---,0.00,VWS V14.01,2013-03-10 23:32:00,
2013-03-10 19:37:00,60.4,28.9,27.90,East,90,2.0,2.0,30,0.00,,---,0.00,VWS V14.01,2013-03-10 23:37:00,
2013-03-10 19:42:00,60.3,28.7,27.90,South,180,0.9,2.7,30,0.00,,---,0.00,VWS V14.01,2013-03-10 23:42:00,
2013-03-10 19:47:00,60.3,28.7,27.90,East,90,2.7,2.7,30,0.00,,---,0.00,VWS V14.01,2013-03-10 23:47:00,
2013-03-10 19:52:00,59.9,29.2,27.90,NE,45,2.5,2.9,31,0.00,,---,0.00,VWS V14.01,2013-03-10 23:52:00,
2013-03-10 19:57:00,59.7,29.8,27.90,ESE,112,0.0,2.5,32,0.00,,---,0.00,VWS V14.01,2013-03-10 23:57:00,
2013-03-10 20:02:00,59.5,29.7,27.90,East,90,2.9,3.6,32,0.00,,---,0.00,VWS V14.01,2013-03-11 00:02:00,
2013-03-10 20:07:00,59.7,29.8,27.90,SSE,158,5.8,5.8,32,0.00,,---,0.00,VWS V14.01,2013-03-11 00:07:00,
2013-03-10 20:12:00,59.5,29.7,27.90,ESE,112,0.9,2.2,32,0.00,,---,0.00,VWS V14.01,2013-03-11 00:12:00,
2013-03-10 20:17:00,59.4,30.3,27.90,SSE,158,4.0,4.0,33,0.00,,---,0.00,VWS V14.01,2013-03-11 00:17:00,
2013-03-10 20:22:00,59.2,30.1,27.90,SE,135,4.9,4.9,33,0.00,,---,0.00,VWS V14.01,2013-03-11 00:22:00,
2013-03-10 20:27:00,59.2,30.9,27.90,SE,135,2.5,2.5,34,0.00,,---,0.00,VWS V14.01,2013-03-11 00:27:00,
2013-03-10 20:32:00,59.2,30.9,27.90,NE,45,4.9,4.9,34,0.00,,---,0.00,VWS V14.01,2013-03-11 00:32:00,
2013-03-10 20:37:00,59.2,30.9,27.90,ESE,112,5.4,5.4,34,0.00,,---,0.00,VWS V14.01,2013-03-11 00:37:00,
2013-03-10 20:42:00,59.2,30.9,27.90,SSE,158,3.6,4.3,34,0.00,,---,0.00,VWS V14.01,2013-03-11 00:42:00,
2013-03-10 20:47:00,59.4,31.0,27.90,ESE,112,1.3,2.2,34,0.00,,---,0.00,VWS V14.01,2013-03-11 00:47:00,
2013-03-10 20:52:00,59.2,31.6,27.90,SE,135,3.6,3.6,35,0.00,,---,0.00,VWS V14.01,2013-03-11 00:52:00,
2013-03-10 20:57:00,58.8,31.2,27.90,WNW,292,4.9,4.9,35,0.00,,---,0.00,VWS V14.01,2013-03-11 00:57:00,
2013-03-10 21:02:00,58.6,31.1,27.90,ENE,68,1.6,1.6,35,0.00,,---,0.00,VWS V14.01,2013-03-11 01:02:00,
2013-03-10 21:07:00,58.5,30.9,27.90,ESE,112,2.9,2.9,35,0.00,,---,0.00,VWS V14.01,2013-03-11 01:07:00,
2013-03-10 21:12:00,58.1,30.6,27.90,SE,135,3.4,3.4,35,0.00,,---,0.00,VWS V14.01,2013-03-11 01:12:00,
2013-03-10 21:18:00,58.1,31.3,27.90,SE,135,2.0,2.0,36,0.00,,---,0.00,VWS V14.01,2013-03-11 01:18:00,
2013-03-10 21:23:00,57.9,31.1,27.90,ESE,112,1.3,3.6,36,0.00,,---,0.00,VWS V14.01,2013-03-11 01:23:00,
2013-03-10 21:28:00,57.7,31.0,27.90,South,180,3.8,3.8,36,0.00,,---,0.00,VWS V14.01,2013-03-11 01:28:00,
2013-03-10 21:33:00,57.6,30.8,27.90,ESE,112,2.5,5.6,36,0.00,,---,0.00,VWS V14.01,2013-03-11 01:33:00,
2013-03-10 21:38:00,57.4,30.7,27.90,East,90,3.1,3.6,36,0.00,,---,0.00,VWS V14.01,2013-03-11 01:38:00,
2013-03-10 21:43:00,57.4,30.7,27.90,NE,45,2.0,3.4,36,0.00,,---,0.00,VWS V14.01,2013-03-11 01:43:00,
2013-03-10 21:48:00,57.2,30.5,27.90,ESE,112,2.5,4.3,36,0.00,,---,0.00,VWS V14.01,2013-03-11 01:48:00,
2013-03-10 21:53:00,56.8,30.9,27.90,SE,135,0.9,0.9,37,0.00,,---,0.00,VWS V14.01,2013-03-11 01:53:00,
2013-03-10 21:58:00,57.0,31.0,27.90,SE,135,0.0,2.9,37,0.00,,---,0.00,VWS V14.01,2013-03-11 01:58:00,
2013-03-10 22:03:00,57.0,31.0,27.90,East,90,0.0,2.0,37,0.00,,---,0.00,VWS V14.01,2013-03-11 02:03:00,
2013-03-10 22:08:00,56.8,31.5,27.90,WNW,292,1.1,3.6,38,0.00,,---,0.00,VWS V14.01,2013-03-11 02:08:00,
2013-03-10 22:13:00,56.8,31.5,27.90,East,90,3.4,3.6,38,0.00,,---,0.00,VWS V14.01,2013-03-11 02:13:00,
2013-03-10 22:18:00,56.7,31.4,27.90,East,90,3.6,3.6,38,0.00,,---,0.00,VWS V14.01,2013-03-11 02:18:00,
2013-03-10 22:23:00,56.8,32.2,27.90,East,90,2.2,3.1,39,0.00,,---,0.00,VWS V14.01,2013-03-11 02:23:00,
2013-03-10 22:28:00,56.8,32.2,27.90,SSE,158,1.6,1.6,39,0.00,,---,0.00,VWS V14.01,2013-03-11 02:28:00,
2013-03-10 22:33:00,56.7,32.0,27.90,ESE,112,6.3,6.3,39,0.00,,---,0.00,VWS V14.01,2013-03-11 02:33:00,
2013-03-10 22:38:00,56.8,32.2,27.90,South,180,4.7,4.7,39,0.00,,---,0.00,VWS V14.01,2013-03-11 02:38:00,
2013-03-10 22:44:00,56.7,32.6,27.90,South,180,3.1,4.0,40,0.00,,---,0.00,VWS V14.01,2013-03-11 02:44:00,
2013-03-10 22:49:00,56.8,32.8,27.90,East,90,3.6,8.5,40,0.00,,---,0.00,VWS V14.01,2013-03-11 02:49:00,
2013-03-10 22:54:00,56.8,32.8,27.90,SSE,158,4.9,6.3,40,0.00,,---,0.00,VWS V14.01,2013-03-11 02:54:00,
2013-03-10 22:59:00,56.8,33.4,27.90,SSW,202,2.0,2.0,41,0.00,,---,0.00,VWS V14.01,2013-03-11 02:59:00,
2013-03-10 23:04:00,56.8,33.4,27.90,ESE,112,2.2,3.8,41,0.00,,---,0.00,VWS V14.01,2013-03-11 03:04:00,
2013-03-10 23:09:00,56.8,33.4,27.90,ESE,112,3.8,3.8,41,0.00,,---,0.00,VWS V14.01,2013-03-11 03:09:00,
2013-03-10 23:14:00,56.8,33.4,27.90,SE,135,3.6,3.6,41,0.00,,---,0.00,VWS V14.01,2013-03-11 03:14:00,
2013-03-10 23:19:00,56.8,34.0,27.90,ESE,112,1.3,5.4,42,0.00,,---,0.00,VWS V14.01,2013-03-11 03:19:00,
2013-03-10 23:24:00,57.0,34.2,27.90,SE,135,2.0,7.6,42,0.00,,---,0.00,VWS V14.01,2013-03-11 03:24:00,
2013-03-10 23:29:00,57.2,34.3,27.90,SSW,202,2.7,4.3,42,0.00,,---,0.00,VWS V14.01,2013-03-11 03:29:00,
2013-03-10 23:34:00,57.0,34.8,27.90,NE,45,6.5,6.5,43,0.00,,---,0.00,VWS V14.01,2013-03-11 03:34:00,
2013-03-10 23:39:00,57.2,34.9,27.90,ENE,68,4.5,4.5,43,0.00,,---,0.00,VWS V14.01,2013-03-11 03:39:00,
2013-03-10 23:44:00,57.2,34.9,27.90,SE,135,4.9,4.9,43,0.00,,---,0.00,VWS V14.01,2013-03-11 03:44:00,
2013-03-10 23:49:00,57.0,35.3,27.90,East,90,2.5,2.5,44,0.00,,---,0.00,VWS V14.01,2013-03-11 03:49:00,
2013-03-10 23:54:00,57.0,35.3,27.90,SSE,158,1.3,2.7,44,0.00,,---,0.00,VWS V14.01,2013-03-11 03:54:00,
2013-03-10 23:59:00,57.0,35.9,27.90,East,90,3.6,3.6,45,0.00,,---,0.00,VWS V14.01,2013-03-11 03:59:00,